Time;durP1;ratioP1;P1;durP2;ratioP2;P2;SDS_P1;SDS_P2;PMS_P1;PMS_P2;Temp;Humidity;BMP_temperature;BMP_pressure;BME280_temperature;BME280_humidity;BME280_pressure;Samples;Min_cycle;Max_cycle;Signal;HPM_P1;HPM_P2
2021/05/17 00:00:51;;;;;;;5.95;3.67;;;11.70;98.30;;;;;;5021176;28;20386;-83
2021/05/17 00:03:18;;;;;;;5.03;3.60;;;11.70;98.60;;;;;;5034602;28;20037;-83
2021/05/17 00:05:45;;;;;;;7.78;4.13;;;11.70;98.50;;;;;;5031853;28;20102;-84
2021/05/17 00:08:11;;;;;;;5.03;3.65;;;11.70;98.40;;;;;;5038334;28;20029;-84
2021/05/17 00:10:38;;;;;;;6.85;3.65;;;11.60;98.30;;;;;;5010310;28;20021;-84
2021/05/17 00:13:04;;;;;;;5.97;3.25;;;11.60;98.50;;;;;;5053740;28;20052;-83
2021/05/17 00:15:30;;;;;;;5.53;3.47;;;11.60;98.50;;;;;;5041061;28;20410;-84
2021/05/17 00:17:56;;;;;;;7.25;3.90;;;11.60;98.60;;;;;;5041881;28;20025;-85
2021/05/17 00:20:26;;;;;;;5.25;3.40;;;11.60;98.80;;;;;;5036464;28;20059;-84
2021/05/17 00:22:53;;;;;;;4.80;3.33;;;11.50;98.60;;;;;;5043181;28;20057;-85
2021/05/17 00:25:22;;;;;;;5.78;3.60;;;11.60;98.80;;;;;;5034258;28;20021;-85
2021/05/17 00:27:52;;;;;;;4.90;3.25;;;11.60;99.00;;;;;;5028001;28;20106;-84
2021/05/17 00:30:19;;;;;;;5.20;3.38;;;11.60;99.10;;;;;;5054356;28;20023;-84
2021/05/17 00:32:45;;;;;;;5.13;3.20;;;11.60;99.00;;;;;;5012604;28;20490;-84
2021/05/17 00:35:12;;;;;;;4.80;3.30;;;11.60;99.00;;;;;;5034736;28;20083;-85
2021/05/17 00:37:38;;;;;;;6.00;3.22;;;11.60;99.10;;;;;;5024335;28;20379;-85
2021/05/17 00:40:06;;;;;;;5.55;3.78;;;11.60;99.20;;;;;;5044991;28;20025;-84
2021/05/17 00:42:33;;;;;;;5.95;3.72;;;11.60;99.20;;;;;;4998770;28;20021;-84
2021/05/17 00:44:59;;;;;;;6.57;4.15;;;11.60;99.40;;;;;;5009315;28;20025;-84
2021/05/17 00:47:27;;;;;;;9.32;4.80;;;11.60;99.20;;;;;;5031173;28;20025;-85
2021/05/17 00:49:53;;;;;;;6.53;4.20;;;11.60;99.20;;;;;;5061678;28;20017;-84
2021/05/17 00:52:20;;;;;;;6.15;3.92;;;11.60;99.20;;;;;;5023535;28;20017;-85
2021/05/17 00:54:46;;;;;;;4.97;3.97;;;11.50;99.20;;;;;;5038447;28;20430;-84
2021/05/17 00:57:12;;;;;;;5.55;3.70;;;11.50;99.20;;;;;;4995236;28;20033;-84
2021/05/17 00:59:38;;;;;;;6.38;4.18;;;11.50;99.20;;;;;;5034031;28;20486;-84
2021/05/17 01:02:05;;;;;;;7.30;3.97;;;11.50;99.30;;;;;;5017626;28;20061;-85
2021/05/17 01:04:31;;;;;;;7.55;4.10;;;11.40;99.30;;;;;;5017292;28;20041;-83
2021/05/17 01:06:58;;;;;;;7.68;4.65;;;11.40;99.40;;;;;;5023513;28;20075;-84
2021/05/17 01:09:26;;;;;;;8.18;4.45;;;11.40;99.40;;;;;;5024983;28;20025;-84
2021/05/17 01:11:56;;;;;;;8.07;4.32;;;11.30;99.50;;;;;;5036156;28;20024;-84
2021/05/17 01:14:22;;;;;;;6.40;4.88;;;11.30;99.50;;;;;;5058310;28;20029;-85
2021/05/17 01:16:49;;;;;;;6.90;4.90;;;11.30;99.50;;;;;;5020336;28;20029;-84
2021/05/17 01:19:20;;;;;;;7.68;4.63;;;11.30;99.60;;;;;;5017878;28;20018;-84
2021/05/17 01:21:52;;;;;;;8.43;5.03;;;11.30;99.70;;;;;;5048054;28;20036;-84
2021/05/17 01:24:18;;;;;;;8.30;4.50;;;11.30;99.70;;;;;;5009481;28;20083;-85
2021/05/17 01:26:44;;;;;;;7.43;4.60;;;11.30;99.80;;;;;;5053595;28;20025;-84
2021/05/17 01:29:11;;;;;;;7.10;4.13;;;11.30;99.80;;;;;;5037753;28;20032;-84
2021/05/17 01:31:37;;;;;;;6.03;4.03;;;11.30;99.70;;;;;;5004329;28;20033;-84
2021/05/17 01:34:03;;;;;;;5.93;3.90;;;11.30;99.80;;;;;;5037492;28;20044;-84
2021/05/17 01:36:29;;;;;;;6.15;3.85;;;11.30;99.80;;;;;;5020633;28;20017;-84
2021/05/17 01:38:56;;;;;;;6.22;3.85;;;11.30;99.90;;;;;;5004583;28;20063;-85
2021/05/17 01:41:24;;;;;;;5.85;3.88;;;11.20;99.80;;;;;;5037104;28;20489;-85
2021/05/17 01:43:54;;;;;;;5.25;4.05;;;11.30;99.90;;;;;;5017253;28;20025;-85
2021/05/17 01:46:29;;;;;;;6.63;3.70;;;11.20;99.90;;;;;;5028542;28;20059;-84
2021/05/17 01:48:56;;;;;;;6.75;3.75;;;11.20;99.90;;;;;;5036755;28;20415;-84
2021/05/17 01:51:23;;;;;;;5.00;3.63;;;11.30;99.90;;;;;;5037054;28;20021;-84
2021/05/17 01:53:50;;;;;;;5.70;3.85;;;11.20;99.90;;;;;;5036813;28;20398;-84
2021/05/17 01:56:17;;;;;;;4.15;3.30;;;11.20;99.90;;;;;;5020691;28;20049;-84
2021/05/17 01:58:43;;;;;;;7.38;4.03;;;11.20;99.90;;;;;;5017725;28;20044;-84
2021/05/17 02:01:12;;;;;;;5.88;3.50;;;11.20;99.90;;;;;;5037090;28;20036;-84
2021/05/17 02:03:40;;;;;;;4.80;3.28;;;11.20;99.90;;;;;;5023827;28;20025;-84
2021/05/17 02:06:07;;;;;;;4.45;3.10;;;11.20;99.90;;;;;;5019810;28;20127;-84
2021/05/17 02:08:39;;;;;;;4.75;2.90;;;11.20;99.90;;;;;;5036803;28;20021;-84
2021/05/17 02:11:12;;;;;;;3.92;3.10;;;11.20;99.90;;;;;;5036648;28;20033;-84
2021/05/17 02:13:39;;;;;;;5.35;3.20;;;11.20;99.90;;;;;;5017240;28;20022;-83
2021/05/17 02:16:05;;;;;;;7.35;3.78;;;11.20;99.90;;;;;;5021072;28;20524;-83
2021/05/17 02:18:31;;;;;;;4.13;3.03;;;11.20;99.90;;;;;;5011376;28;20057;-84
2021/05/17 02:20:57;;;;;;;5.82;3.15;;;11.20;99.90;;;;;;5016780;28;20063;-84
2021/05/17 02:23:22;;;;;;;4.32;2.92;;;11.20;99.90;;;;;;5016867;28;20482;-84
2021/05/17 02:25:50;;;;;;;5.28;3.20;;;11.20;99.90;;;;;;5024328;28;20037;-84
2021/05/17 02:28:17;;;;;;;4.38;2.90;;;11.20;99.90;;;;;;5003409;28;20359;-84
2021/05/17 02:30:43;;;;;;;3.90;2.90;;;11.20;99.90;;;;;;5009918;28;20033;-84
2021/05/17 02:33:10;;;;;;;6.85;3.30;;;11.20;99.90;;;;;;5034448;28;20378;-84
2021/05/17 02:35:37;;;;;;;5.60;3.35;;;11.20;99.90;;;;;;5037155;28;20441;-84
2021/05/17 02:38:04;;;;;;;5.97;3.50;;;11.20;99.90;;;;;;5035610;28;20033;-83
2021/05/17 02:40:30;;;;;;;5.95;3.20;;;11.20;99.90;;;;;;4992361;28;20029;-84
2021/05/17 02:43:10;;;;;;;5.88;3.35;;;11.20;99.90;;;;;;5037092;28;20032;-84
2021/05/17 02:45:37;;;;;;;7.27;4.00;;;11.20;99.90;;;;;;5024740;28;20021;-84
2021/05/17 02:48:06;;;;;;;6.45;3.70;;;11.10;99.90;;;;;;5036660;28;20085;-84
2021/05/17 02:50:36;;;;;;;7.22;4.32;;;11.10;99.90;;;;;;5030467;28;20025;-84
2021/05/17 02:53:22;;;;;;;7.20;4.35;;;11.10;99.90;;;;;;5029689;28;20116;-84
2021/05/17 02:55:50;;;;;;;6.60;3.95;;;11.10;99.90;;;;;;5024347;28;20112;-84
2021/05/17 02:58:18;;;;;;;8.27;4.07;;;11.00;99.90;;;;;;5036684;28;20017;-84
2021/05/17 03:01:00;;;;;;;7.47;4.95;;;11.10;99.90;;;;;;5036478;28;20112;-84
2021/05/17 03:03:27;;;;;;;8.10;4.55;;;11.00;99.90;;;;;;5022429;28;20152;-84
2021/05/17 03:06:01;;;;;;;9.48;5.03;;;11.00;99.90;;;;;;5054057;28;20056;-84
2021/05/17 03:08:32;;;;;;;8.10;4.72;;;11.00;99.90;;;;;;5036275;28;20032;-83
2021/05/17 03:10:59;;;;;;;8.55;4.60;;;11.00;99.90;;;;;;5040660;28;20463;-83
2021/05/17 03:13:26;;;;;;;7.90;5.00;;;11.00;99.90;;;;;;5007259;28;20040;-84
2021/05/17 03:15:52;;;;;;;7.57;5.45;;;11.00;99.90;;;;;;5053018;28;20025;-84
2021/05/17 03:18:18;;;;;;;8.93;4.75;;;11.00;99.90;;;;;;5028938;28;20075;-84
2021/05/17 03:20:43;;;;;;;7.30;4.97;;;11.00;99.90;;;;;;5019060;28;20083;-84
2021/05/17 03:23:14;;;;;;;10.15;5.85;;;11.00;99.90;;;;;;5036130;28;20478;-85
2021/05/17 03:25:46;;;;;;;;;;;11.00;99.90;;;;;;5054346;28;20021;-84
2021/05/17 03:28:11;;;;;;;7.72;5.03;;;11.00;99.90;;;;;;5031527;28;19909;-85
2021/05/17 03:30:37;;;;;;;9.50;5.70;;;11.00;99.90;;;;;;5026446;28;20029;-84
2021/05/17 03:33:03;;;;;;;8.40;5.15;;;11.00;99.90;;;;;;5019138;28;20132;-84
2021/05/17 03:35:29;;;;;;;8.57;4.53;;;11.00;99.90;;;;;;5019294;28;20382;-83
2021/05/17 03:37:55;;;;;;;8.77;5.18;;;11.00;99.90;;;;;;5040043;28;20112;-83
2021/05/17 03:40:21;;;;;;;9.35;5.20;;;11.00;99.90;;;;;;5019811;28;20079;-83
2021/05/17 03:42:47;;;;;;;9.07;5.30;;;11.00;99.90;;;;;;5054008;28;20025;-83
2021/05/17 03:45:14;;;;;;;8.60;5.03;;;11.00;99.90;;;;;;5002416;28;20027;-83
2021/05/17 03:47:40;;;;;;;11.40;5.65;;;11.00;99.90;;;;;;5019639;28;20513;-83
2021/05/17 03:50:08;;;;;;;10.55;4.78;;;11.00;99.90;;;;;;5049493;28;20029;-83
2021/05/17 03:52:33;;;;;;;9.07;5.10;;;11.00;99.90;;;;;;5036118;28;20044;-83
2021/05/17 03:54:59;;;;;;;8.60;4.82;;;11.00;99.90;;;;;;5005568;28;20475;-83
2021/05/17 03:57:26;;;;;;;9.88;5.40;;;11.00;99.90;;;;;;5035942;28;20079;-83
2021/05/17 03:59:52;;;;;;;10.40;5.55;;;11.00;99.90;;;;;;5045664;28;20021;-84
2021/05/17 04:02:21;;;;;;;8.05;5.28;;;11.00;99.90;;;;;;5020018;28;20027;-84
2021/05/17 04:12:28;;;;;;;11.68;5.65;;;11.00;99.90;;;;;;5046500;28;20039;-83
2021/05/17 04:13:53;;;;;;;9.02;5.22;;;11.10;99.90;;;;;;4987276;28;20026;-83
2021/05/17 04:16:18;;;;;;;10.73;5.35;;;11.00;99.90;;;;;;5035726;28;20082;-83
2021/05/17 04:18:45;;;;;;;10.52;5.78;;;11.00;99.90;;;;;;5026529;28;20037;-83
2021/05/17 04:21:11;;;;;;;8.95;5.63;;;11.00;99.90;;;;;;5031999;28;20021;-83
2021/05/17 04:23:37;;;;;;;10.02;6.05;;;11.10;99.90;;;;;;5034680;28;20382;-83
2021/05/17 04:26:03;;;;;;;9.90;5.70;;;11.10;99.90;;;;;;5043975;28;20036;-83
2021/05/17 04:28:29;;;;;;;9.82;5.40;;;11.00;99.90;;;;;;5053242;28;20029;-83
2021/05/17 04:30:55;;;;;;;10.85;5.40;;;11.10;99.90;;;;;;5038671;28;20029;-83
2021/05/17 04:33:21;;;;;;;11.10;6.15;;;11.10;99.90;;;;;;5018411;28;20021;-83
2021/05/17 04:35:47;;;;;;;8.88;5.85;;;11.20;99.90;;;;;;5035316;28;20466;-83
2021/05/17 04:38:12;;;;;;;9.73;5.43;;;11.10;99.90;;;;;;5035543;28;20029;-83
2021/05/17 04:40:38;;;;;;;8.93;5.40;;;11.20;99.90;;;;;;5037620;28;20040;-83
2021/05/17 04:43:04;;;;;;;8.25;4.78;;;11.10;99.90;;;;;;5046872;28;20039;-83
2021/05/17 04:45:29;;;;;;;9.68;5.35;;;11.20;99.90;;;;;;5031947;28;20026;-83
2021/05/17 04:47:55;;;;;;;8.88;4.70;;;11.20;99.90;;;;;;5027010;28;20521;-83
2021/05/17 04:50:22;;;;;;;7.80;4.78;;;11.20;99.90;;;;;;5008075;28;20091;-83
2021/05/17 04:52:48;;;;;;;10.75;4.85;;;11.20;99.90;;;;;;5057215;28;20471;-83
2021/05/17 04:55:14;;;;;;;9.15;5.32;;;11.20;99.90;;;;;;5036524;28;20298;-84
2021/05/17 04:57:40;;;;;;;8.65;5.05;;;11.20;99.90;;;;;;5019578;28;20180;-83
2021/05/17 05:00:08;;;;;;;8.40;4.80;;;11.20;99.90;;;;;;5019271;28;20084;-83
2021/05/17 05:02:33;;;;;;;9.23;5.35;;;11.20;99.90;;;;;;5023428;28;20021;-83
2021/05/17 05:04:59;;;;;;;8.60;5.15;;;11.20;99.90;;;;;;5037048;28;20047;-83
2021/05/17 05:07:25;;;;;;;7.07;5.15;;;11.20;99.90;;;;;;5032310;28;20120;-83
2021/05/17 05:09:51;;;;;;;8.43;4.50;;;11.20;99.90;;;;;;5021967;28;20492;-83
2021/05/17 05:12:17;;;;;;;7.45;4.75;;;11.20;99.90;;;;;;5021527;28;20021;-83
2021/05/17 05:14:45;;;;;;;8.13;5.38;;;11.20;99.90;;;;;;5029966;28;20032;-81
2021/05/17 05:17:11;;;;;;;7.50;4.97;;;11.20;99.90;;;;;;5057020;28;20021;-83
2021/05/17 05:19:37;;;;;;;9.65;4.60;;;11.20;99.90;;;;;;5043699;28;20107;-83
2021/05/17 05:22:03;;;;;;;8.90;5.43;;;11.20;99.90;;;;;;5038890;28;20029;-84
2021/05/17 05:24:28;;;;;;;7.85;4.75;;;11.20;99.90;;;;;;5054174;28;20489;-84
2021/05/17 05:34:27;;;;;;;11.00;4.75;;;11.20;99.90;;;;;;5037852;28;20037;-84
2021/05/17 05:36:53;;;;;;;8.52;5.25;;;11.30;99.90;;;;;;5027677;28;20017;-84
2021/05/17 05:39:19;;;;;;;8.82;4.40;;;11.30;99.90;;;;;;5056329;28;20025;-84
2021/05/17 05:41:45;;;;;;;8.60;4.47;;;11.30;99.90;;;;;;5055190;28;20067;-84
2021/05/17 05:44:11;;;;;;;9.77;5.10;;;11.30;99.90;;;;;;5038019;28;20112;-84
2021/05/17 05:46:37;;;;;;;8.52;4.18;;;11.20;99.90;;;;;;5018016;28;20382;-84
2021/05/17 05:49:03;;;;;;;8.60;4.65;;;11.30;99.90;;;;;;5007580;28;20036;-83
2021/05/17 05:51:30;;;;;;;9.43;5.07;;;11.30;99.90;;;;;;5034710;28;20367;-83
2021/05/17 05:53:58;;;;;;;9.75;4.90;;;11.30;99.90;;;;;;5027624;28;20025;-84
2021/05/17 05:56:25;;;;;;;9.25;5.13;;;11.30;99.90;;;;;;5016779;28;20116;-84
2021/05/17 05:58:51;;;;;;;8.23;4.57;;;11.30;99.90;;;;;;5037823;28;20021;-84
2021/05/17 06:01:18;;;;;;;11.13;5.10;;;11.30;99.90;;;;;;5054577;28;20036;-84
2021/05/17 06:03:46;;;;;;;9.77;5.15;;;11.30;99.90;;;;;;5038073;28;20071;-84
2021/05/17 06:06:12;;;;;;;9.63;5.20;;;11.30;99.90;;;;;;5038127;28;20029;-84
2021/05/17 06:08:40;;;;;;;8.82;5.18;;;11.30;99.90;;;;;;5037891;28;20075;-84
2021/05/17 06:11:07;;;;;;;8.43;5.53;;;11.30;99.90;;;;;;5027416;28;20018;-84
2021/05/17 06:13:33;;;;;;;9.98;5.50;;;11.30;99.90;;;;;;5052265;28;20055;-85
2021/05/17 06:16:00;;;;;;;10.15;5.50;;;11.30;99.90;;;;;;5037318;28;20017;-85
2021/05/17 06:18:26;;;;;;;12.63;5.70;;;11.30;99.90;;;;;;5036285;28;20040;-84
2021/05/17 06:20:54;;;;;;;10.45;5.93;;;11.30;99.90;;;;;;5023110;28;20025;-85
2021/05/17 06:23:20;;;;;;;11.15;5.50;;;11.30;99.90;;;;;;5043076;28;20048;-84
2021/05/17 06:25:46;;;;;;;12.57;6.10;;;11.30;99.90;;;;;;5019080;28;20044;-84
2021/05/17 06:28:12;;;;;;;12.13;6.40;;;11.30;99.90;;;;;;5053213;28;20056;-83
2021/05/17 06:30:48;;;;;;;13.52;5.65;;;11.40;99.90;;;;;;5036255;28;20395;-84
2021/05/17 06:33:14;;;;;;;10.60;5.53;;;11.40;99.90;;;;;;5034535;28;20026;-83
2021/05/17 06:35:45;;;;;;;14.25;6.63;;;11.40;99.90;;;;;;5029785;28;20075;-84
2021/05/17 06:38:12;;;;;;;9.52;6.10;;;11.40;99.90;;;;;;5036707;28;20490;-84
2021/05/17 06:40:40;;;;;;;10.50;6.07;;;11.40;99.90;;;;;;5025255;28;20021;-85
2021/05/17 06:43:07;;;;;;;11.13;6.53;;;11.50;99.90;;;;;;5019007;28;20063;-83
2021/05/17 06:45:33;;;;;;;16.27;6.97;;;11.50;99.90;;;;;;5043090;28;20032;-84
2021/05/17 06:48:00;;;;;;;8.88;6.10;;;11.50;99.90;;;;;;5014182;28;20036;-84
2021/05/17 06:50:26;;;;;;;11.80;6.65;;;11.50;99.90;;;;;;5008905;28;20021;-83
2021/05/17 06:52:52;;;;;;;10.32;6.05;;;11.50;99.90;;;;;;5033975;28;20035;-84
2021/05/17 06:55:22;;;;;;;12.00;6.40;;;11.50;99.90;;;;;;5037202;28;20017;-85
2021/05/17 06:58:04;;;;;;;13.20;5.93;;;11.60;99.90;;;;;;5027639;28;20116;-84
2021/05/17 07:00:31;;;;;;;10.48;5.65;;;11.60;99.90;;;;;;5041054;28;20032;-84
2021/05/17 07:03:06;;;;;;;10.40;5.80;;;11.60;99.90;;;;;;5036970;28;20088;-84
2021/05/17 07:05:33;;;;;;;8.82;5.93;;;11.60;99.90;;;;;;5026883;28;20414;-84
2021/05/17 07:13:10;;;;;;;9.90;5.85;;;11.60;99.90;;;;;;5039449;28;20450;-84
2021/05/17 07:15:35;;;;;;;8.30;5.07;;;11.60;99.90;;;;;;5020373;28;20021;-84
2021/05/17 07:18:01;;;;;;;12.88;5.85;;;11.70;99.90;;;;;;5036765;28;20459;-85
2021/05/17 07:20:36;;;;;;;11.43;5.30;;;11.70;99.90;;;;;;5050324;28;20047;-84
2021/05/17 07:25:46;;;;;;;12.43;5.43;;;11.70;99.90;;;;;;5037174;28;20095;-83
2021/05/17 07:28:11;;;;;;;9.98;5.03;;;11.70;99.90;;;;;;5022355;28;20030;-84
2021/05/17 07:30:38;;;;;;;14.38;6.10;;;11.70;99.90;;;;;;5023020;28;20471;-83
2021/05/17 07:33:04;;;;;;;11.95;5.13;;;11.70;99.90;;;;;;5030729;28;20034;-84
2021/05/17 07:35:29;;;;;;;13.82;5.38;;;11.70;99.90;;;;;;5058177;28;20434;-83
2021/05/17 07:37:55;;;;;;;11.73;5.05;;;11.80;99.90;;;;;;5032539;28;20033;-84
2021/05/17 07:40:21;;;;;;;11.27;4.97;;;11.80;99.90;;;;;;5015592;28;20033;-84
2021/05/17 07:42:46;;;;;;;9.30;5.07;;;11.80;99.90;;;;;;4999748;28;20065;-84
2021/05/17 07:45:12;;;;;;;11.15;5.50;;;11.70;99.90;;;;;;5026602;28;20036;-84
2021/05/17 07:47:38;;;;;;;15.63;5.25;;;11.70;99.90;;;;;;5022498;28;20028;-84
2021/05/17 07:50:04;;;;;;;11.43;4.95;;;11.80;99.90;;;;;;5021143;28;20021;-83
2021/05/17 07:52:30;;;;;;;12.73;5.75;;;11.80;99.90;;;;;;5035512;28;20060;-83
2021/05/17 07:54:55;;;;;;;11.98;5.07;;;11.80;99.90;;;;;;5015609;28;20042;-83
2021/05/17 07:57:21;;;;;;;8.02;4.97;;;11.80;99.90;;;;;;5025019;28;20076;-83
2021/05/17 07:59:47;;;;;;;12.23;4.53;;;11.80;99.90;;;;;;5042996;28;20397;-83
2021/05/17 08:02:20;;;;;;;10.00;4.72;;;11.90;99.90;;;;;;5050632;28;20025;-83
2021/05/17 08:04:46;;;;;;;10.82;5.30;;;11.90;99.90;;;;;;5014284;28;20371;-83
2021/05/17 08:07:13;;;;;;;11.63;5.18;;;12.00;99.90;;;;;;5051985;28;20537;-83
2021/05/17 08:09:38;;;;;;;11.00;5.00;;;12.00;99.90;;;;;;5029099;28;20456;-83
2021/05/17 08:12:04;;;;;;;11.82;4.97;;;12.10;99.90;;;;;;5031930;28;20116;-83
2021/05/17 08:14:30;;;;;;;10.82;4.70;;;12.10;99.90;;;;;;5004843;28;20025;-83
2021/05/17 08:16:56;;;;;;;10.55;4.85;;;12.20;99.90;;;;;;5037780;28;20521;-83
2021/05/17 08:19:21;;;;;;;8.00;4.45;;;12.20;99.90;;;;;;5050990;28;20032;-83
2021/05/17 08:21:47;;;;;;;10.63;4.22;;;12.30;99.90;;;;;;5031340;28;20076;-83
2021/05/17 08:24:13;;;;;;;7.35;4.18;;;12.30;99.90;;;;;;5029612;28;20131;-84
2021/05/17 08:26:40;;;;;;;10.00;4.78;;;12.30;99.90;;;;;;5040782;28;20030;-83
2021/05/17 08:29:07;;;;;;;7.85;4.22;;;12.40;99.90;;;;;;5035374;28;20025;-83
2021/05/17 08:31:33;;;;;;;8.55;3.97;;;12.40;99.90;;;;;;5018940;28;20112;-84
2021/05/17 08:33:59;;;;;;;8.15;3.72;;;12.40;99.90;;;;;;5053331;28;20089;-83
2021/05/17 08:36:25;;;;;;;9.82;4.40;;;12.40;99.90;;;;;;5057170;28;20414;-83
2021/05/17 08:38:51;;;;;;;8.80;3.20;;;12.50;99.90;;;;;;5044329;28;20060;-84
2021/05/17 08:41:16;;;;;;;7.50;3.20;;;12.50;99.90;;;;;;5019286;28;20036;-84
2021/05/17 08:43:43;;;;;;;9.10;3.42;;;12.50;99.90;;;;;;5034630;28;20476;-84
2021/05/17 08:46:10;;;;;;;6.22;2.67;;;12.50;99.90;;;;;;5047836;28;20457;-84
2021/05/17 08:48:47;;;;;;;8.18;3.22;;;12.50;99.90;;;;;;5035424;28;20076;-84
2021/05/17 08:51:19;;;;;;;4.22;2.42;;;12.50;99.90;;;;;;5035159;28;20033;-83
2021/05/17 08:53:48;;;;;;;7.80;3.10;;;12.50;99.90;;;;;;5053365;28;20095;-84
2021/05/17 08:56:14;;;;;;;4.95;2.72;;;12.50;99.90;;;;;;5052643;28;20021;-84
2021/05/17 08:58:40;;;;;;;6.68;3.40;;;12.60;99.90;;;;;;5015270;28;20039;-84
2021/05/17 09:01:05;;;;;;;6.88;3.60;;;12.60;99.90;;;;;;5020939;28;20471;-84
2021/05/17 09:03:31;;;;;;;6.63;3.50;;;12.70;99.90;;;;;;5008626;28;20450;-84
2021/05/17 09:06:05;;;;;;;7.65;3.42;;;12.70;99.90;;;;;;5027221;28;20506;-84
2021/05/17 09:08:30;;;;;;;6.50;3.63;;;12.80;99.90;;;;;;5033130;28;20407;-85
2021/05/17 09:10:56;;;;;;;12.10;4.22;;;12.80;99.90;;;;;;5018634;28;20022;-84
2021/05/17 09:13:21;;;;;;;6.35;3.78;;;12.90;99.90;;;;;;5034906;28;20037;-85
2021/05/17 09:15:52;;;;;;;8.45;3.90;;;13.00;99.90;;;;;;5020753;28;20095;-84
2021/05/17 09:18:32;;;;;;;8.18;3.75;;;13.10;99.90;;;;;;5041542;28;20029;-83
2021/05/17 09:21:02;;;;;;;8.27;4.20;;;13.30;99.40;;;;;;5053065;28;20021;-84
2021/05/17 09:23:32;;;;;;;6.35;3.55;;;13.30;99.10;;;;;;5051210;28;20029;-84
2021/05/17 09:25:59;;;;;;;8.98;3.85;;;13.30;99.30;;;;;;5051640;28;20028;-83
2021/05/17 09:28:31;;;;;;;5.57;3.25;;;13.30;99.10;;;;;;5047332;28;20402;-86
2021/05/17 09:31:05;;;;;;;7.97;3.50;;;13.30;99.30;;;;;;5036152;28;20022;-84
2021/05/17 09:33:52;;;;;;;7.18;3.38;;;13.30;99.20;;;;;;5025942;28;20025;-84
2021/05/17 09:36:41;;;;;;;7.07;3.05;;;13.30;99.40;;;;;;5036884;28;20536;-85
2021/05/17 09:39:11;;;;;;;8.88;2.90;;;13.30;99.20;;;;;;5038619;28;20032;-83
2021/05/17 09:41:44;;;;;;;6.75;3.03;;;13.30;98.10;;;;;;5052300;28;20028;-82
2021/05/17 09:44:21;;;;;;;7.13;3.00;;;13.30;97.70;;;;;;5034475;28;20496;-85
2021/05/17 09:47:07;;;;;;;6.95;3.15;;;13.40;97.40;;;;;;5025851;28;20326;-84
2021/05/17 09:49:40;;;;;;;8.95;3.85;;;13.40;98.30;;;;;;5041416;28;20032;-85
2021/05/17 09:52:24;;;;;;;7.47;3.10;;;13.50;98.30;;;;;;5038528;28;20493;-86
2021/05/17 09:54:57;;;;;;;7.80;3.55;;;13.70;98.80;;;;;;5016934;28;20032;-86
2021/05/17 09:57:29;;;;;;;7.30;3.65;;;13.90;98.70;;;;;;5054820;28;20059;-84
2021/05/17 09:59:57;;;;;;;6.05;3.22;;;14.00;98.30;;;;;;5056073;28;20025;-85
2021/05/17 10:02:34;;;;;;;6.07;3.00;;;14.00;96.90;;;;;;5052162;28;20017;-85
2021/05/17 10:05:26;;;;;;;4.43;3.17;;;14.00;96.80;;;;;;5041321;23;20076;-85
2021/05/17 10:08:13;;;;;;;5.47;3.20;;;14.00;96.20;;;;;;5037335;28;20159;-86
2021/05/17 10:10:39;;;;;;;6.00;3.53;;;14.00;96.60;;;;;;5042746;28;20059;-86
2021/05/17 10:13:06;;;;;;;4.80;3.10;;;14.00;96.60;;;;;;5033470;28;20033;-85
2021/05/17 10:15:34;;;;;;;6.55;3.45;;;14.10;96.90;;;;;;5032500;28;20402;-84
2021/05/17 10:18:00;;;;;;;7.82;3.67;;;14.10;96.60;;;;;;5053273;28;20013;-83
2021/05/17 10:20:44;;;;;;;6.38;3.20;;;14.20;96.70;;;;;;5040062;28;20506;-85
2021/05/17 10:23:13;;;;;;;6.93;3.00;;;14.20;95.90;;;;;;5021951;28;20037;-85
2021/05/17 10:25:40;;;;;;;4.55;2.53;;;14.20;95.10;;;;;;5031225;28;20547;-85
2021/05/17 10:28:13;;;;;;;4.88;2.90;;;14.20;94.70;;;;;;5033460;28;20037;-84
2021/05/17 10:30:39;;;;;;;6.65;3.60;;;14.20;95.10;;;;;;5034515;28;20025;-84
2021/05/17 10:33:07;;;;;;;6.22;2.80;;;14.10;94.70;;;;;;5036313;28;20017;-84
2021/05/17 10:35:38;;;;;;;5.03;2.03;;;14.10;95.20;;;;;;5053095;28;20488;-85
2021/05/17 10:38:36;;;;;;;1.88;1.35;;;14.10;94.30;;;;;;5038924;28;20031;-84
2021/05/17 10:46:39;;;;;;;4.35;2.28;;;13.90;94.80;;;;;;5053522;28;20436;-83
2021/05/17 10:49:33;;;;;;;5.78;2.75;;;13.90;95.40;;;;;;5053983;28;20378;-83
2021/05/17 10:52:10;;;;;;;5.68;2.65;;;13.80;95.70;;;;;;5062955;28;20024;-84
2021/05/17 10:54:37;;;;;;;5.30;3.05;;;13.80;96.20;;;;;;5052244;28;20574;-84
2021/05/17 10:57:21;;;;;;;5.82;3.45;;;13.90;96.60;;;;;;5019783;28;20025;-84
2021/05/17 11:02:38;;;;;;;4.85;2.80;;;14.00;97.50;;;;;;5056120;28;20559;-84
2021/05/17 11:05:20;;;;;;;5.55;3.35;;;14.10;98.00;;;;;;5052017;28;20056;-85
2021/05/17 11:08:00;;;;;;;6.18;4.15;;;14.20;97.80;;;;;;5046574;28;20511;-85
2021/05/17 11:10:32;;;;;;;9.63;4.60;;;14.20;97.80;;;;;;5053562;28;20021;-85
2021/05/17 11:13:00;;;;;;;9.32;4.68;;;14.20;97.50;;;;;;5042500;28;20024;-85
2021/05/17 11:15:45;;;;;;;6.97;3.85;;;14.20;97.70;;;;;;5041130;28;20025;-84
2021/05/17 11:18:12;;;;;;;4.88;3.50;;;14.20;97.80;;;;;;5053479;28;20025;-84
2021/05/17 11:20:41;;;;;;;5.50;3.22;;;14.20;98.00;;;;;;5039665;28;20079;-84
2021/05/17 11:23:32;;;;;;;4.47;3.00;;;14.20;97.30;;;;;;5053640;28;20120;-84
2021/05/17 11:26:13;;;;;;;4.15;2.55;;;14.20;97.50;;;;;;5044927;28;20033;-84
2021/05/17 11:28:39;;;;;;;4.30;2.50;;;14.20;97.80;;;;;;5044432;28;20478;-85
2021/05/17 11:31:17;;;;;;;3.10;2.38;;;14.20;97.80;;;;;;5051622;28;20111;-84
2021/05/17 11:34:01;;;;;;;5.22;2.33;;;14.30;97.90;;;;;;5035214;28;20402;-84
2021/05/17 11:36:47;;;;;;;2.97;2.03;;;14.40;96.80;;;;;;5051858;28;20465;-84
2021/05/17 11:41:41;;;;;;;2.42;1.40;;;14.40;96.60;;;;;;5039628;28;20032;-84
2021/05/17 11:44:09;;;;;;;1.45;1.15;;;14.40;95.40;;;;;;5052777;28;20024;-84
2021/05/17 11:46:37;;;;;;;2.40;1.23;;;14.30;95.80;;;;;;5052696;28;20024;-84
2021/05/17 11:49:04;;;;;;;1.85;1.17;;;14.30;96.40;;;;;;5041112;28;20027;-85
2021/05/17 11:51:31;;;;;;;2.58;1.52;;;14.30;96.80;;;;;;5034912;28;20021;-85
2021/05/17 11:53:57;;;;;;;6.28;2.97;;;14.30;96.90;;;;;;5051811;28;20016;-84
2021/05/17 11:56:42;;;;;;;6.65;3.50;;;14.30;97.00;;;;;;5020722;28;20022;-84
2021/05/17 11:59:19;;;;;;;4.05;2.10;;;14.40;96.70;;;;;;5034766;28;20021;-84
2021/05/17 12:01:47;;;;;;;2.90;2.20;;;14.40;96.60;;;;;;5052527;28;20593;-83
2021/05/17 12:04:19;;;;;;;6.70;3.83;;;14.50;97.10;;;;;;5034494;28;20496;-85
2021/05/17 12:06:51;;;;;;;4.82;3.00;;;14.60;96.90;;;;;;5034340;28;20028;-85
2021/05/17 12:09:27;;;;;;;6.38;3.42;;;14.70;96.30;;;;;;5052408;28;20489;-84
2021/05/17 12:11:53;;;;;;;6.03;3.10;;;14.80;96.30;;;;;;5034242;28;20021;-85
2021/05/17 12:14:19;;;;;;;5.93;3.50;;;14.80;96.30;;;;;;5050632;28;20104;-85
2021/05/17 12:16:45;;;;;;;5.90;3.90;;;14.90;96.20;;;;;;5031249;28;20036;-85
2021/05/17 12:19:15;;;;;;;7.07;3.88;;;14.90;95.80;;;;;;5053181;28;20027;-84
2021/05/17 12:21:41;;;;;;;5.57;3.93;;;15.00;96.10;;;;;;5050569;28;20033;-88
2021/05/17 12:24:22;;;;;;;8.18;4.00;;;15.00;96.30;;;;;;5034647;28;20025;-84
2021/05/17 12:27:12;;;;;;;5.40;3.55;;;15.00;96.50;;;;;;5028015;28;20116;-84
2021/05/17 12:29:58;;;;;;;6.82;4.35;;;15.00;95.90;;;;;;5047932;28;20385;-84
2021/05/17 12:32:54;;;;;;;6.75;4.70;;;14.90;96.10;;;;;;5063427;28;20017;-85
2021/05/17 12:35:29;;;;;;;6.82;5.38;;;14.80;95.60;;;;;;5046965;28;20389;-84
2021/05/17 12:38:15;;;;;;;6.47;4.43;;;14.70;95.90;;;;;;5041728;28;20026;-84
2021/05/17 12:40:44;;;;;;;5.55;4.32;;;14.70;96.30;;;;;;5036691;28;20063;-85
2021/05/17 12:43:19;;;;;;;7.05;5.03;;;14.70;96.90;;;;;;5040976;28;20505;-84
2021/05/17 12:45:48;;;;;;;7.38;5.47;;;14.70;97.30;;;;;;5051288;28;20036;-85
2021/05/17 12:48:18;;;;;;;8.50;6.72;;;14.80;97.20;;;;;;5043669;28;20375;-85
2021/05/17 12:50:46;;;;;;;6.60;5.77;;;14.80;97.50;;;;;;5040149;28;20031;-84
2021/05/17 12:53:15;;;;;;;7.97;6.03;;;14.90;97.80;;;;;;5046443;28;20783;-86
2021/05/17 12:55:44;;;;;;;8.30;6.28;;;15.00;97.60;;;;;;5051936;28;20024;-84
2021/05/17 12:58:10;;;;;;;7.82;6.20;;;15.00;95.70;;;;;;5053729;28;20025;-85
2021/05/17 13:00:47;;;;;;;6.80;6.10;;;15.00;96.70;;;;;;5052477;28;20536;-84
2021/05/17 13:03:23;;;;;;;7.38;6.35;;;15.10;97.20;;;;;;5051181;28;20395;-85
2021/05/17 13:06:01;;;;;;;7.03;6.20;;;15.10;97.80;;;;;;5073144;28;20047;-85
2021/05/17 13:08:29;;;;;;;7.20;6.20;;;15.20;98.00;;;;;;5062991;28;20044;-84
2021/05/17 13:11:04;;;;;;;6.70;5.55;;;15.30;98.00;;;;;;5078344;28;20013;-84
2021/05/17 13:13:50;;;;;;;6.85;5.65;;;15.30;98.00;;;;;;5080765;28;20044;-84
2021/05/17 13:16:31;;;;;;;7.63;4.68;;;15.40;97.80;;;;;;5064933;28;20032;-84
2021/05/17 13:21:58;;;;;;;5.90;3.60;;;15.40;96.80;;;;;;5069739;28;19897;-82
2021/05/17 13:24:44;;;;;;;4.10;3.17;;;15.40;97.20;;;;;;5079861;28;20293;-82
2021/05/17 13:30:16;;;;;;;4.18;3.40;;;15.40;97.30;;;;;;5066559;28;20060;-83
2021/05/17 13:32:47;;;;;;;4.60;3.35;;;15.40;96.80;;;;;;5076432;28;20033;-83
2021/05/17 13:35:14;;;;;;;5.07;3.53;;;15.40;96.30;;;;;;5067227;28;20048;-83